M I D A S
Marine Information and Data Acquisition System
Tripno 719 of the Zeeleeuw from 2004-05-18 06:12:13 to 2004-05-18 12:34:22
Back to CruiseResearch ActivitiesStationsMapUnderway DataData graphs

EquipmentUnitsComments
TimeDGPSUTC
LatitudeDGPSDM.mWGS84
LongitudeDGPSDM.mWGS84
SpeedMeteo Stationm/sRelative wind speed
DirectionMeteo StationdegRelative wind direction
TemperatureMeteo Stationdeg CelciusAir temperature
PressureMeteo StationPaAtmospheric pressure
HumidityMeteo Station%Relative humidity
Missing or incorrect values are displayed as -999
Metereological data collected by the RV Zeeleeuw from 2004-05-18 06:12:13 to 2004-05-18 12:34:22
Time Latitude Longitude Speed Direction Temperature Pressure Humidity
2004-05-18 06:13 51°13.679 2°55.762 2.7 264 13.9 102450 80
2004-05-18 06:14 51°13.689 2°55.749 2.6 339 13.8 102450 81
2004-05-18 06:15 51°13.74 2°55.734 3.6 20 13.9 102450 82
2004-05-18 06:16 51°13.808 2°55.661 4.1 17 13.9 102450 82
2004-05-18 06:17 51°13.868 2°55.613 3.9 23 13.8 102450 82
2004-05-18 06:18 51°13.926 2°55.581 2.9 20 13.8 102450 82
2004-05-18 06:19 51°13.991 2°55.545 3.2 18 13.8 102450 83
2004-05-18 06:20 51°14.066 2°55.477 5.3 17 13.8 102450 83
2004-05-18 06:21 51°14.205 2°55.348 7.4 25 13.8 102450 83
2004-05-18 06:22 51°14.335 2°55.132 6.4 19 13.8 102450 83
2004-05-18 06:23 51°14.424 2°54.783 6 21 13.7 102440 83
2004-05-18 06:24 51°14.386 2°54.419 6 21 13.7 102440 84
2004-05-18 06:25 51°14.309 2°54.066 6.1 17 13.7 102450 83
2004-05-18 06:26 51°14.193 2°53.741 5.9 15 13.7 102450 84
2004-05-18 06:27 51°14.074 2°53.406 6.6 17 13.6 102450 84
2004-05-18 06:28 51°13.976 2°53.054 6.1 18 13.6 102450 84
2004-05-18 06:29 51°13.867 2°52.697 6.6 20 13.6 102460 84
2004-05-18 06:30 51°13.755 2°52.344 6.4 22 13.6 102450 83
2004-05-18 06:31 51°13.626 2°52.005 6.3 19 13.6 102450 83
2004-05-18 06:32 51°13.501 2°51.668 6.1 17 13.6 102460 83
2004-05-18 06:33 51°13.369 2°51.321 6.2 17 13.6 102450 83
2004-05-18 06:34 51°13.242 2°50.986 5.5 17 13.6 102450 83
2004-05-18 06:35 51°13.107 2°50.64 5.7 17 13.5 102450 84
2004-05-18 06:36 51°12.971 2°50.27 5.9 21 13.5 102450 84
2004-05-18 06:37 51°12.841 2°49.911 5.9 21 13.5 102450 84
2004-05-18 06:38 51°12.712 2°49.558 5.6 20 13.5 102450 84
2004-05-18 06:39 51°12.584 2°49.208 5.7 14 13.5 102450 84
2004-05-18 06:40 51°12.457 2°48.865 5.7 11 13.5 102450 84
2004-05-18 06:41 51°12.326 2°48.509 5.8 12 13.5 102450 84
2004-05-18 06:42 51°12.208 2°48.147 6.3 13 13.4 102450 84
2004-05-18 06:43 51°12.093 2°47.78 6 16 13.5 102450 84
2004-05-18 06:44 51°11.979 2°47.418 6.4 17 13.5 102460 84
2004-05-18 06:45 51°11.862 2°47.045 6.1 20 13.5 102450 84
2004-05-18 06:46 51°11.748 2°46.677 5.9 22 13.5 102460 84
2004-05-18 06:47 51°11.641 2°46.311 5.8 21 13.5 102460 84
2004-05-18 06:48 51°11.542 2°45.932 6.2 22 13.5 102460 84
2004-05-18 06:49 51°11.44 2°45.549 6.2 23 13.5 102460 84
2004-05-18 06:50 51°11.338 2°45.167 6.4 24 13.5 102460 84
2004-05-18 06:51 51°11.24 2°44.796 6.4 22 13.5 102460 84
2004-05-18 06:52 51°11.143 2°44.424 6.4 23 13.5 102470 84
2004-05-18 06:53 51°11.066 2°44.028 6.6 25 13.5 102460 84
2004-05-18 06:54 51°10.997 2°43.634 6.3 19 13.5 102470 84
2004-05-18 06:55 51°10.919 2°43.235 6.5 19 13.6 102460 84
2004-05-18 06:56 51°10.846 2°42.855 6 17 13.6 102460 84
2004-05-18 06:57 51°10.768 2°42.448 5.6 19 13.5 102470 84
2004-05-18 06:58 51°10.696 2°42.068 5.6 26 13.5 102460 84
2004-05-18 06:59 51°10.62 2°41.662 5.5 24 13.5 102460 84
2004-05-18 07:00 51°10.55 2°41.283 6.2 19 13.5 102470 84
2004-05-18 07:01 51°10.476 2°40.884 6.7 19 13.5 102470 84
2004-05-18 07:02 51°10.404 2°40.492 6.7 19 13.5 102470 84
2004-05-18 07:03 51°10.331 2°40.096 7.3 15 13.5 102480 84
2004-05-18 07:04 51°10.261 2°39.716 6.9 15 13.5 102480 84
2004-05-18 07:05 51°10.185 2°39.332 6.9 13 13.5 102480 84
2004-05-18 07:06 51°10.099 2°38.961 6.5 16 13.4 102480 84
2004-05-18 07:07 51°10.013 2°38.582 6 21 13.4 102480 84
2004-05-18 07:08 51°9.924 2°38.188 6.1 16 13.4 102480 84
2004-05-18 07:09 51°9.839 2°37.77 6.1 15 13.4 102480 84
2004-05-18 07:10 51°9.759 2°37.377 5.6 13 13.4 102470 84
2004-05-18 07:11 51°9.679 2°36.99 5.3 12 13.4 102470 84
2004-05-18 07:12 51°9.602 2°36.608 5.5 14 13.4 102470 85
2004-05-18 07:13 51°9.529 2°36.252 2.6 21 13.3 102470 85
2004-05-18 07:14 51°9.492 2°36.043 1.4 57 13.4 102470 85
2004-05-18 07:15 51°9.464 2°35.894 1.4 126 13.4 102470 85
2004-05-18 07:16 51°9.45 2°35.813 1.9 115 13.4 102470 85
2004-05-18 07:17 51°9.444 2°35.727 2.4 98 13.4 102470 85
2004-05-18 07:18 51°9.443 2°35.632 2.7 90 13.4 102470 85
2004-05-18 07:19 51°9.446 2°35.541 3 85 13.5 102480 85
2004-05-18 07:20 51°9.45 2°35.453 2.6 85 13.4 102480 85
2004-05-18 07:21 51°9.456 2°35.367 2.1 79 13.4 102480 85
2004-05-18 07:22 51°9.463 2°35.283 2.1 74 13.3 102480 85
2004-05-18 07:23 51°9.47 2°35.2 2.3 70 13.3 102480 85
2004-05-18 07:24 51°9.477 2°35.117 2.4 65 13.2 102480 86
2004-05-18 07:25 51°9.485 2°35.034 2.2 60 13.1 102490 86
2004-05-18 07:26 51°9.495 2°34.953 2.8 47 13.1 102490 86
2004-05-18 07:27 51°9.508 2°34.878 2.6 35 13.1 102490 86
2004-05-18 07:28 51°9.523 2°34.809 2.8 28 13.1 102490 86
2004-05-18 07:29 51°9.54 2°34.75 2.5 27 13.1 102490 87
2004-05-18 07:30 51°9.561 2°34.71 2.4 25 13.2 102490 86
2004-05-18 07:31 51°9.581 2°34.683 2.6 14 13.3 102490 86
2004-05-18 07:32 51°9.602 2°34.665 2.7 4 13.4 102490 86
2004-05-18 07:33 51°9.617 2°34.652 2.7 351 13.5 102490 85
2004-05-18 07:34 51°9.642 2°34.654 4.9 357 13.6 102490 85
2004-05-18 07:35 51°9.799 2°34.779 9.2 4 13.6 102480 84
2004-05-18 07:36 51°9.96 2°34.926 6.2 357 13.5 102480 84
2004-05-18 07:37 51°9.969 2°35.036 3 310 13.6 102490 85
2004-05-18 07:38 51°9.956 2°35.031 1.7 258 13.5 102490 84
2004-05-18 07:39 51°9.94 2°35.016 1.4 251 13.5 102490 84
2004-05-18 07:40 51°9.924 2°35.001 1.3 255 13.5 102490 84
2004-05-18 07:41 51°9.906 2°34.985 1.7 256 13.5 102490 84
2004-05-18 07:42 51°9.888 2°34.97 2.4 261 13.5 102480 84
2004-05-18 07:43 51°9.868 2°34.955 2.2 266 13.5 102480 84
2004-05-18 07:44 51°9.849 2°34.941 2.3 262 13.5 102490 84
2004-05-18 07:45 51°9.829 2°34.925 2.4 263 13.6 102490 84
2004-05-18 07:46 51°9.81 2°34.911 2.6 265 13.6 102490 84
2004-05-18 07:47 51°9.791 2°34.897 2.5 263 13.7 102480 84
2004-05-18 07:48 51°9.771 2°34.882 2.3 269 13.7 102490 84
2004-05-18 07:49 51°9.752 2°34.868 2.8 265 13.8 102490 84
2004-05-18 07:50 51°9.733 2°34.854 2.4 270 13.9 102490 84
2004-05-18 07:51 51°9.714 2°34.837 2.2 270 13.9 102490 84
2004-05-18 07:52 51°9.693 2°34.817 1.9 269 14 102490 83
2004-05-18 07:53 51°9.671 2°34.795 1.6 266 14 102490 83
2004-05-18 07:54 51°9.649 2°34.769 1.5 268 14 102490 83
2004-05-18 07:55 51°9.627 2°34.743 1.1 266 14 102490 82
2004-05-18 07:56 51°9.604 2°34.716 1.2 263 14 102490 82
2004-05-18 07:57 51°9.582 2°34.689 1 260 14 102490 82
2004-05-18 07:58 51°9.561 2°34.663 1.5 260 14 102490 82
2004-05-18 07:59 51°9.541 2°34.636 0.8 256 14 102490 82
2004-05-18 08:00 51°9.521 2°34.611 1.2 254 14 102490 82
2004-05-18 08:01 51°9.507 2°34.686 5.2 355 14 102490 82
2004-05-18 08:02 51°9.653 2°34.81 8.1 2 14 102480 82
2004-05-18 08:03 51°9.829 2°34.963 8.5 2 13.9 102490 82
2004-05-18 08:04 51°10.01 2°35.145 8.5   13.8 102480 82
2004-05-18 08:05 51°10.204 2°35.344 8.8   13.7 102490 83
2004-05-18 08:06 51°10.385 2°35.527 8.6 3 13.7 102490 83
2004-05-18 08:07 51°10.562 2°35.709 8.3   13.6 102490 83
2004-05-18 08:08 51°10.734 2°35.886 8.8 359 13.6 102490 84
2004-05-18 08:09 51°10.908 2°36.067 8.7 357 13.6 102490 84
2004-05-18 08:10 51°11.082 2°36.246 8.6 356 13.6 102490 84
2004-05-18 08:11 51°11.257 2°36.424 8.9 353 13.6 102490 84
2004-05-18 08:13 51°11.445 2°36.618 9.2 352 13.6 102490 84
2004-05-18 08:14 51°11.622 2°36.801 9.6 350 13.7 102490 84
2004-05-18 08:15 51°11.812 2°36.998 9.5 349 13.7 102500 84
2004-05-18 08:16 51°11.996 2°37.188 9.9 346 13.8 102490 84
2004-05-18 08:17 51°12.171 2°37.372 9.9 349 13.8 102500 84
2004-05-18 08:18 51°12.343 2°37.552 9.5 350 13.8 102500 84
2004-05-18 08:19 51°12.516 2°37.721 10 351 13.8 102500 84
2004-05-18 08:20 51°12.705 2°37.881 10.2 352 13.8 102490 83
2004-05-18 08:21 51°12.885 2°38.024 10.2 352 13.8 102500 83
2004-05-18 08:22 51°13.103 2°38.183 10.3 352 13.7 102500 83
2004-05-18 08:23 51°13.294 2°38.319 10.5 354 13.7 102500 83
2004-05-18 08:24 51°13.482 2°38.453 10.7 354 13.6 102500 84
2004-05-18 08:25 51°13.678 2°38.584 10.2 357 13.6 102500 84
2004-05-18 08:26 51°13.875 2°38.702 10.9 359 13.5 102510 84
2004-05-18 08:27 51°14.079 2°38.672 10.8   13.5 102500 84
2004-05-18 08:28 51°14.215 2°38.397 8.6 34 13.4 102490 84
2004-05-18 08:29 51°14.117 2°38.029 5.9 33 13.3 102500 84
2004-05-18 08:30 51°13.987 2°37.688 6.1 31 13.1 102510 85
2004-05-18 08:31 51°13.857 2°37.336 6.6 32 13 102510 86
2004-05-18 08:32 51°13.739 2°36.962 6.4 34 13 102510 87
2004-05-18 08:33 51°13.616 2°36.558 6.7 36 12.9 102510 87
2004-05-18 08:34 51°13.489 2°36.141 6.4 35 12.9 102510 87
2004-05-18 08:35 51°13.379 2°35.777 6.5 31 12.9 102510 87
2004-05-18 08:36 51°13.27 2°35.415 6.5 30 13 102510 88
2004-05-18 08:37 51°13.152 2°35.027 6.7 33 13 102510 87
2004-05-18 08:38 51°13.029 2°34.627 6.7 32 13 102510 87
2004-05-18 08:39 51°12.917 2°34.268 6.4 29 13 102510 87
2004-05-18 08:40 51°12.804 2°33.91 6.5 31 13 102510 87
2004-05-18 08:41 51°12.69 2°33.556 6.4 27 13.1 102510 87
2004-05-18 08:42 51°12.578 2°33.205 6.5 35 13 102510 87
2004-05-18 08:43 51°12.465 2°32.855 6 28 13 102510 87
2004-05-18 08:44 51°12.366 2°32.496 6.7 33 13 102510 87
2004-05-18 08:45 51°12.262 2°32.107 6.4 31 13 102510 87
2004-05-18 08:46 51°12.167 2°31.753 6.7 29 12.9 102510 87
2004-05-18 08:47 51°12.07 2°31.392 6.5 32 13 102510 87
2004-05-18 08:49 51°11.963 2°30.995 6.4 35 12.9 102510 87
2004-05-18 08:50 51°11.865 2°30.633 6.7 31 12.9 102510 87
2004-05-18 08:51 51°11.768 2°30.269 6.6 32 12.9 102510 87
2004-05-18 08:52 51°11.663 2°29.88 6.6 33 12.9 102510 87
2004-05-18 08:53 51°11.566 2°29.513 7 34 12.9 102510 87
2004-05-18 08:54 51°11.462 2°29.122 6.7 34 12.9 102510 88
2004-05-18 08:55 51°11.368 2°28.767 6.8 33 12.8 102510 88
2004-05-18 08:56 51°11.269 2°28.394 7.2 33 12.8 102510 88
2004-05-18 08:57 51°11.192 2°27.97 7.1 36 12.8 102510 88
2004-05-18 08:58 51°11.129 2°27.596 7.4 33 12.8 102510 88
2004-05-18 08:59 51°11.063 2°27.213 7.8 34 12.8 102520 88
2004-05-18 09:00 51°11.042 2°26.823 8.5 35 12.8 102510 89
2004-05-18 09:01 51°11.031 2°26.451 8.4 35 12.7 102510 89
2004-05-18 09:02 51°11.038 2°26.081 9 27 12.7 102520 89
2004-05-18 09:03 51°11.099 2°25.733 9.1 30 12.7 102510 89
2004-05-18 09:04 51°11.209 2°25.426 10.2 19 12.8 102510 89
2004-05-18 09:05 51°11.399 2°25.263 10.5 14 12.8 102510 89
2004-05-18 09:06 51°11.609 2°25.212 10.4   12.8 102510 89
2004-05-18 09:07 51°11.802 2°25.333 10.7 360 12.8 102500 89
2004-05-18 09:08 51°12 2°25.468 10.4 360 12.8 102500 89
2004-05-18 09:09 51°12.189 2°25.611 10.8 1 12.8 102510 89
2004-05-18 09:10 51°12.381 2°25.76 11.2 359 12.8 102500 89
2004-05-18 09:11 51°12.574 2°25.909 11.2 1 12.8 102500 89
2004-05-18 09:12 51°12.764 2°26.053 11.6 359 12.8 102510 89
2004-05-18 09:13 51°12.954 2°26.197 10.8 358 12.8 102510 89
2004-05-18 09:14 51°13.057 2°26.306 6.6 341 12.9 102510 89
2004-05-18 09:15 51°13.084 2°26.381 5.3 322 12.9 102520 88
2004-05-18 09:16 51°13.075 2°26.398 4.3 265 13 102520 88
2004-05-18 09:17 51°13.056 2°26.396 2.9 241 12.8 102520 88
2004-05-18 09:18 51°13.035 2°26.393 3.1 239 12.9 102520 88
2004-05-18 09:19 51°13.012 2°26.392 3.1 256 12.9 102520 88
2004-05-18 09:20 51°12.987 2°26.417 4 301 12.8 102520 88
2004-05-18 09:21 51°12.974 2°26.471 4.7 310 12.9 102520 88
2004-05-18 09:22 51°12.968 2°26.513 4.6 315 13 102520 88
2004-05-18 09:23 51°12.965 2°26.553 4.3 316 13.1 102520 88
2004-05-18 09:24 51°12.963 2°26.594 4.4 42 13.2 102510 88
2004-05-18 09:25 51°12.958 2°26.637 4.2 42 13.2 102510 87
2004-05-18 09:26 51°12.952 2°26.68 3.7 315 13.3 102510 87
2004-05-18 09:27 51°12.945 2°26.726 4.9 228 13.4 102510 87
2004-05-18 09:28 51°12.937 2°26.773 4.8 310 13.4 102510 86
2004-05-18 09:29 51°12.929 2°26.822 5.2 309 13.5 102510 86
2004-05-18 09:30 51°12.922 2°26.871 4.9 311 13.5 102510 85
2004-05-18 09:31 51°12.916 2°26.921 4.9 311 13.5 102510 85
2004-05-18 09:32 51°12.908 2°26.97 4.7 309 13.6 102510 85
2004-05-18 09:33 51°12.9 2°27.02 5.2 312 13.6 102510 84
2004-05-18 09:34 51°12.892 2°27.071 4.4 314 13.6 102510 84
2004-05-18 09:35 51°12.887 2°27.125 4.7 228 13.6 102510 84
2004-05-18 09:36 51°12.883 2°27.179 4.5 309 13.6 102510 84
2004-05-18 09:37 51°12.878 2°27.231 5.1 304 13.6 102510 84
2004-05-18 09:38 51°12.871 2°27.275 5 299 13.6 102510 83
2004-05-18 09:39 51°12.864 2°27.314 5.2 296 13.7 102510 83
2004-05-18 09:40 51°12.857 2°27.348 5 290 13.7 102510 83
2004-05-18 09:41 51°12.849 2°27.381 5.4 292 13.8 102510 83
2004-05-18 09:42 51°12.843 2°27.41 4.8 297 13.8 102510 83
2004-05-18 09:43 51°12.839 2°27.439 4.9 299 13.9 102510 83
2004-05-18 09:44 51°12.835 2°27.465 5 306 13.8 102510 82
2004-05-18 09:45 51°12.832 2°27.49 4.7 306 13.8 102510 82
2004-05-18 09:46 51°12.829 2°27.517 4.9 314 13.8 102510 83
2004-05-18 09:47 51°12.853 2°27.579 7 359 13.7 102500 83
2004-05-18 09:48 51°13.034 2°27.747 11.6 3 13.6 102490 82
2004-05-18 09:49 51°13.231 2°27.947 11.8   13.4 102490 83
2004-05-18 09:50 51°13.426 2°28.153 12.2 360 13.3 102490 84
2004-05-18 09:51 51°13.616 2°28.354 12.2 1 13.2 102480 84
2004-05-18 09:52 51°13.809 2°28.557 11.2 3 13.2 102480 84
2004-05-18 09:53 51°14.002 2°28.76 12.1 2 13.2 102480 84
2004-05-18 09:54 51°14.196 2°28.962 12.2 2 13.1 102490 85
2004-05-18 09:55 51°14.39 2°29.165 11.8 1 13.1 102490 85
2004-05-18 09:56 51°14.584 2°29.369 12.3 2 13.1 102490 84
2004-05-18 09:57 51°14.775 2°29.58 11.4 2 13 102490 84
2004-05-18 09:58 51°14.965 2°29.795 11.6 1 13.1 102490 85
2004-05-18 09:59 51°15.158 2°30.013 11.5 1 13.1 102490 85
2004-05-18 10:00 51°15.344 2°30.23 11.7 3 13.1 102490 85
2004-05-18 10:01 51°15.536 2°30.454 11.3   13.1 102490 85
2004-05-18 10:02 51°15.726 2°30.674 12 360 13.1 102490 85
2004-05-18 10:03 51°15.915 2°30.894 11.6   13.1 102490 84
2004-05-18 10:04 51°16.102 2°31.11 10.7 2 13.1 102490 84
2004-05-18 10:05 51°16.288 2°31.332 11.9 359 13.1 102490 84
2004-05-18 10:06 51°16.473 2°31.552 11.6 2 13 102480 84
2004-05-18 10:07 51°16.659 2°31.771 12.3   13 102490 84
2004-05-18 10:08 51°16.847 2°31.993 12.7 1 13 102490 84
2004-05-18 10:09 51°17.034 2°32.215 11.5 3 12.9 102480 84
2004-05-18 10:10 51°17.223 2°32.439 11.9 3 12.9 102480 84
2004-05-18 10:11 51°17.408 2°32.658 11.5 2 12.9 102480 85
2004-05-18 10:12 51°17.599 2°32.884 11.3   12.9 102480 85
2004-05-18 10:13 51°17.787 2°33.108 12.8 3 12.9 102480 85
2004-05-18 10:14 51°17.972 2°33.331 11.7 4 12.8 102490 84
2004-05-18 10:15 51°18.164 2°33.564 12 2 12.8 102480 84
2004-05-18 10:16 51°18.354 2°33.794 12 3 12.8 102490 85
2004-05-18 10:17 51°18.542 2°34.017 10.9 5 12.8 102480 85
2004-05-18 10:18 51°18.735 2°34.245 11.4 3 12.8 102490 85
2004-05-18 10:19 51°18.927 2°34.472 11.2 2 12.8 102490 85
2004-05-18 10:20 51°19.121 2°34.703 11.8 360 12.8 102490 85
2004-05-18 10:21 51°19.311 2°34.929 11.1 359 12.8 102490 85
2004-05-18 10:22 51°19.498 2°35.148 10.7 1 12.8 102490 85
2004-05-18 10:23 51°19.673 2°35.36 8.1 354 12.8 102490 85
2004-05-18 10:24 51°19.708 2°35.481 4.3 290 12.8 102500 85
2004-05-18 10:25 51°19.702 2°35.513 2.7 251 12.8 102500 85
2004-05-18 10:26 51°19.689 2°35.54 3.1 230 12.7 102510 85
2004-05-18 10:27 51°19.664 2°35.561 3 225 12.7 102510 85
2004-05-18 10:28 51°19.626 2°35.578 2.9 227 12.7 102510 85
2004-05-18 10:29 51°19.582 2°35.6 3.2 232 12.7 102510 85
2004-05-18 10:30 51°19.542 2°35.625 2.9 236 12.7 102500 85
2004-05-18 10:31 51°19.501 2°35.65 2.7 233 12.7 102500 85
2004-05-18 10:32 51°19.462 2°35.673 2.9 234 12.8 102500 85
2004-05-18 10:33 51°19.424 2°35.693 2.5 232 12.8 102500 85
2004-05-18 10:34 51°19.387 2°35.709 3.2 219 12.8 102500 85
2004-05-18 10:35 51°19.351 2°35.718 2.3 216 12.8 102500 85
2004-05-18 10:36 51°19.316 2°35.722 2.3 206 12.8 102500 85
2004-05-18 10:37 51°19.283 2°35.719 1 186 12.8 102500 86
2004-05-18 10:38 51°19.246 2°35.711 1.7 226 13 102500 86
2004-05-18 10:39 51°19.158 2°35.799 6.3 327 13.1 102500 85
2004-05-18 10:40 51°19.097 2°36.124 9.7 351 13.2 102480 85
2004-05-18 10:41 51°19.159 2°36.51 10.9 352 13.3 102470 84
2004-05-18 10:42 51°19.225 2°36.887 9.2 353 13.3 102480 84
2004-05-18 10:43 51°19.29 2°37.261 9.8 350 13.4 102480 83
2004-05-18 10:44 51°19.353 2°37.635 10.1 349 13.4 102470 83
2004-05-18 10:45 51°19.414 2°37.999 10.2 349 13.4 102480 83
2004-05-18 10:46 51°19.483 2°38.371 9.8 346 13.5 102480 83
2004-05-18 10:47 51°19.552 2°38.74 10.7 346 13.5 102470 83
2004-05-18 10:48 51°19.623 2°39.097 9.9 346 13.5 102470 82
2004-05-18 10:49 51°19.679 2°39.476 9.4 343 13.5 102470 82
2004-05-18 10:50 51°19.729 2°39.85 9.3 344 13.5 102470 83
2004-05-18 10:51 51°19.78 2°40.225 9.9 346 13.5 102470 83
2004-05-18 10:52 51°19.83 2°40.597 10.2 347 13.5 102470 83
2004-05-18 10:53 51°19.877 2°40.989 10.4 348 13.5 102480 83
2004-05-18 10:54 51°19.923 2°41.372 10.7 346 13.6 102470 82
2004-05-18 10:55 51°19.969 2°41.757 9.8 347 13.6 102470 82
2004-05-18 10:56 51°20.018 2°42.138 10.2 345 13.6 102470 82
2004-05-18 10:57 51°20.072 2°42.515 9.5 344 13.6 102480 82
2004-05-18 10:58 51°20.119 2°42.891 10.1 342 13.5 102470 82
2004-05-18 10:59 51°20.158 2°43.265 9.7 343 13.6 102470 82
2004-05-18 11:00 51°20.199 2°43.653 9.6 343 13.6 102470 82
2004-05-18 11:01 51°20.241 2°44.036 10.4 343 13.6 102470 82
2004-05-18 11:02 51°20.281 2°44.418 9.4 344 13.6 102470 82
2004-05-18 11:03 51°20.324 2°44.803 10.1 342 13.6 102470 82
2004-05-18 11:04 51°20.364 2°45.18 9.8 340 13.6 102470 82
2004-05-18 11:05 51°20.403 2°45.542 6.4 325 13.6 102470 82
2004-05-18 11:06 51°20.419 2°45.681 4.2 302 13.6 102490 82
2004-05-18 11:07 51°20.43 2°45.722 3.6 270 13.7 102490 82
2004-05-18 11:08 51°20.419 2°45.81 3.6 279 13.6 102490 82
2004-05-18 11:09 51°20.398 2°45.9 3.7 273 13.7 102490 82
2004-05-18 11:10 51°20.375 2°45.981 3.8 262 13.6 102490 82
2004-05-18 11:11 51°20.35 2°46.059 2.5 256 13.5 102490 82
2004-05-18 11:12 51°20.319 2°46.127 2.9 242 13.4 102490 83
2004-05-18 11:13 51°20.29 2°46.174 3.1 230 13.4 102490 83
2004-05-18 11:14 51°20.26 2°46.219 3.8 226 13.3 102490 83
2004-05-18 11:15 51°20.231 2°46.265 3.6 225 13.3 102490 83
2004-05-18 11:16 51°20.201 2°46.311 3.2 237 13.3 102490 84
2004-05-18 11:17 51°20.171 2°46.358 2.9 231 13.3 102490 84
2004-05-18 11:18 51°20.139 2°46.41 3.4 231 13.3 102490 84
2004-05-18 11:19 51°20.108 2°46.452 3.3 239 13.3 102490 84
2004-05-18 11:20 51°20.073 2°46.496 3 239 13.2 102490 84
2004-05-18 11:21 51°19.985 2°46.596 5.1 319 13.3 102490 84
2004-05-18 11:22 51°19.803 2°46.863 7.2 324 13.4 102480 84
2004-05-18 11:23 51°19.652 2°47.146 7.6 321 13.5 102480 84
2004-05-18 11:24 51°19.512 2°47.434 7.2 321 13.6 102480 84
2004-05-18 11:25 51°19.37 2°47.74 7.2 325 13.6 102480 83
2004-05-18 11:27 51°19.211 2°48.081 7.4 324 13.6 102480 83
2004-05-18 11:28 51°19.073 2°48.376 7.1 327 13.7 102480 83
2004-05-18 11:29 51°18.935 2°48.689 7 330 13.7 102480 83
2004-05-18 11:30 51°18.804 2°49.008 7.7 330 13.7 102480 83
2004-05-18 11:31 51°18.674 2°49.324 7.5 329 13.8 102480 83
2004-05-18 11:32 51°18.539 2°49.653 7 331 13.8 102480 83
2004-05-18 11:33 51°18.41 2°49.971 7.6 327 13.8 102480 83
2004-05-18 11:34 51°18.275 2°50.309 7.3 326 13.8 102480 82
2004-05-18 11:35 51°18.157 2°50.603 5.5 306 13.8 102480 83
2004-05-18 11:36 51°18.112 2°50.75 5.4 277 13.9 102490 83
2004-05-18 11:37 51°18.117 2°50.824 5.5 295 14 102490 83
2004-05-18 11:38 51°18.125 2°50.91 6 290 14 102490 82
2004-05-18 11:39 51°18.128 2°51 4.9 278 14.1 102490 82
2004-05-18 11:40 51°18.123 2°51.087 4.4 260 14.1 102490 81
2004-05-18 11:41 51°18.11 2°51.164 2.7 253 13.9 102490 82
2004-05-18 11:42 51°18.09 2°51.226 3.7 227 13.8 102490 82
2004-05-18 11:43 51°18.064 2°51.271 2.7 205 13.8 102490 83
2004-05-18 11:44 51°18.04 2°51.296 2.9 178 13.7 102490 83
2004-05-18 11:45 51°18.019 2°51.301 4 152 13.8 102490 83
2004-05-18 11:46 51°18.006 2°51.292 4.7 134 13.7 102490 83
2004-05-18 11:47 51°17.999 2°51.272 4.5 130 13.7 102490 83
2004-05-18 11:48 51°17.997 2°51.243 4.9 117 13.6 102490 83
2004-05-18 11:49 51°18 2°51.21 5 107 13.6 102490 84
2004-05-18 11:50 51°17.998 2°51.178 3.1 145 13.6 102490 84
2004-05-18 11:51 51°17.893 2°51.186 3.8 305 13.6 102490 85
2004-05-18 11:52 51°17.751 2°51.447 7 321 13.8 102490 85
2004-05-18 11:53 51°17.607 2°51.74 6.7 321 13.8 102480 84
2004-05-18 11:54 51°17.465 2°52.038 6.9 319 13.8 102480 84
2004-05-18 11:55 51°17.319 2°52.338 6.6 228 13.9 102480 84
2004-05-18 11:56 51°17.172 2°52.635 6.8 323 13.9 102490 83
2004-05-18 11:57 51°17.024 2°52.93 6.7 227 13.9 102480 83
2004-05-18 11:58 51°16.877 2°53.225 6.7 227 14 102490 83
2004-05-18 11:59 51°16.729 2°53.524 5.3 306 14 102480 83
2004-05-18 12:00 51°16.669 2°53.707 3.6 255 14.1 102480 83
2004-05-18 12:01 51°16.656 2°53.771 4.3 234 14 102480 82
2004-05-18 12:02 51°16.636 2°53.833 4.5 229 13.9 102480 83
2004-05-18 12:03 51°16.615 2°53.904 4.3 240 13.9 102480 83
2004-05-18 12:04 51°16.596 2°53.977 4.2 249 13.8 102480 83
2004-05-18 12:05 51°16.576 2°54.055 4 249 13.7 102480 83
2004-05-18 12:06 51°16.555 2°54.13 4.8 239 13.7 102480 83
2004-05-18 12:07 51°16.53 2°54.193 4.4 225 13.8 102480 84
2004-05-18 12:08 51°16.5 2°54.248 4 212 13.7 102480 84
2004-05-18 12:09 51°16.47 2°54.281 2.6 191 13.7 102490 85
2004-05-18 12:10 51°16.443 2°54.293 5 155 13.8 102490 84
2004-05-18 12:11 51°16.423 2°54.287 4.7 148 13.8 102490 84
2004-05-18 12:12 51°16.406 2°54.273 4.5 134 13.7 102490 84
2004-05-18 12:13 51°16.393 2°54.249 4.8 134 13.7 102490 85
2004-05-18 12:14 51°16.317 2°54.218 1 164 13.7 102490 86
2004-05-18 12:15 51°16.103 2°54.243 2.5 352 13.8 102480 86
2004-05-18 12:16 51°15.889 2°54.266 2.1 3 14 102490 87
2004-05-18 12:17 51°15.673 2°54.283 1.1 354 14.1 102480 86
2004-05-18 12:18 51°15.464 2°54.328 2.2 326 14.3 102480 86
2004-05-18 12:19 51°15.252 2°54.4 1.7 228 14.3 102480 85
2004-05-18 12:20 51°15.035 2°54.472 2 323 14.4 102480 84
2004-05-18 12:21 51°14.829 2°54.577 3 331 14.4 102490 83
2004-05-18 12:22 51°14.626 2°54.726 3.1 277 14.4 102490 83
2004-05-18 12:23 51°14.513 2°54.858 2.7 248 14.3 102490 82
2004-05-18 12:24 51°14.429 2°54.978 3.4 243 14.1 102490 83
2004-05-18 12:25 51°14.358 2°55.081 2.6 254 14 102490 83
2004-05-18 12:26 51°14.299 2°55.179 3.5 283 13.9 102490 84
2004-05-18 12:27 51°14.226 2°55.317 4.1 280 13.9 102490 84
2004-05-18 12:28 51°14.149 2°55.424 2.2 252 13.9 102490 84
2004-05-18 12:29 51°14.07 2°55.49 1.9 243 13.9 102490 84
2004-05-18 12:30 51°13.978 2°55.544 2 251 14.1 102480 84
2004-05-18 12:31 51°13.864 2°55.612 1.7 234 14.1 102490 84
2004-05-18 12:32 51°13.755 2°55.696 2.2 240 14.2 102480 84
2004-05-18 12:33 51°13.69 2°55.785 3.7 268 14.2 102480 83